sensor_id;sensor_type;location;lat;lon;timestamp;pressure;altitude;pressure_sealevel;temperature;humidity
70437;BME280;57877;39.750;-104.894;2022-09-20T00:02:01;83593.52;;;32.03;8.78
70437;BME280;57877;39.750;-104.894;2022-09-20T00:04:26;83600.67;;;32.40;8.45
70437;BME280;57877;39.750;-104.894;2022-09-20T00:06:52;83605.53;;;32.33;8.67
70437;BME280;57877;39.750;-104.894;2022-09-20T00:09:17;83608.64;;;31.99;7.61
70437;BME280;57877;39.750;-104.894;2022-09-20T00:11:42;83607.34;;;31.76;7.97
70437;BME280;57877;39.750;-104.894;2022-09-20T00:14:07;83607.01;;;31.65;8.23
70437;BME280;57877;39.750;-104.894;2022-09-20T00:16:35;83607.95;;;31.60;8.08
70437;BME280;57877;39.750;-104.894;2022-09-20T00:18:59;83618.36;;;31.54;8.18
70437;BME280;57877;39.750;-104.894;2022-09-20T00:21:25;83620.70;;;31.93;8.16
70437;BME280;57877;39.750;-104.894;2022-09-20T00:23:47;83620.33;;;31.97;8.29
70437;BME280;57877;39.750;-104.894;2022-09-20T00:26:13;83621.82;;;31.52;8.78
70437;BME280;57877;39.750;-104.894;2022-09-20T00:28:37;83620.45;;;30.81;9.30
70437;BME280;57877;39.750;-104.894;2022-09-20T00:31:02;83617.69;;;30.34;9.52
70437;BME280;57877;39.750;-104.894;2022-09-20T00:33:28;83614.73;;;31.08;9.30
70437;BME280;57877;39.750;-104.894;2022-09-20T00:35:53;83613.83;;;30.94;9.20
70437;BME280;57877;39.750;-104.894;2022-09-20T00:38:18;83611.81;;;30.63;9.34
70437;BME280;57877;39.750;-104.894;2022-09-20T00:40:44;83605.69;;;30.13;9.34
70437;BME280;57877;39.750;-104.894;2022-09-20T00:43:13;83604.70;;;31.34;9.32
70437;BME280;57877;39.750;-104.894;2022-09-20T00:45:33;83607.14;;;31.18;9.46
70437;BME280;57877;39.750;-104.894;2022-09-20T00:48:02;83610.15;;;30.93;9.44
70437;BME280;57877;39.750;-104.894;2022-09-20T00:50:29;83608.67;;;31.07;10.22
70437;BME280;57877;39.750;-104.894;2022-09-20T00:52:50;83605.16;;;30.92;10.48
70437;BME280;57877;39.750;-104.894;2022-09-20T00:55:13;83601.50;;;30.90;10.51
70437;BME280;57877;39.750;-104.894;2022-09-20T00:57:38;83599.23;;;31.20;10.28
70437;BME280;57877;39.750;-104.894;2022-09-20T01:00:06;83596.35;;;30.96;10.29
70437;BME280;57877;39.750;-104.894;2022-09-20T01:02:30;83592.87;;;30.92;10.45
70437;BME280;57877;39.750;-104.894;2022-09-20T01:04:54;83593.30;;;30.81;10.21
70437;BME280;57877;39.750;-104.894;2022-09-20T01:07:20;83592.99;;;30.46;10.33
70437;BME280;57877;39.750;-104.894;2022-09-20T01:09:44;83590.74;;;30.52;10.77
70437;BME280;57877;39.750;-104.894;2022-09-20T01:12:12;83589.70;;;30.17;11.69
70437;BME280;57877;39.750;-104.894;2022-09-20T01:14:34;83592.29;;;30.22;11.67
70437;BME280;57877;39.750;-104.894;2022-09-20T01:17:03;83596.71;;;29.79;12.13
70437;BME280;57877;39.750;-104.894;2022-09-20T01:19:30;83599.10;;;29.68;12.17
70437;BME280;57877;39.750;-104.894;2022-09-20T01:21:50;83603.18;;;29.63;12.12
70437;BME280;57877;39.750;-104.894;2022-09-20T01:24:17;83599.03;;;29.69;12.54
70437;BME280;57877;39.750;-104.894;2022-09-20T01:26:51;83598.66;;;29.25;12.56
70437;BME280;57877;39.750;-104.894;2022-09-20T01:29:11;83601.32;;;29.50;12.86
70437;BME280;57877;39.750;-104.894;2022-09-20T01:31:33;83602.44;;;29.66;12.48
70437;BME280;57877;39.750;-104.894;2022-09-20T01:34:00;83603.91;;;29.28;12.85
70437;BME280;57877;39.750;-104.894;2022-09-20T01:36:24;83605.47;;;28.69;13.05
70437;BME280;57877;39.750;-104.894;2022-09-20T01:38:52;83607.87;;;28.31;13.83
70437;BME280;57877;39.750;-104.894;2022-09-20T01:41:14;83608.26;;;28.42;14.11
70437;BME280;57877;39.750;-104.894;2022-09-20T01:43:37;83609.05;;;28.54;13.93
70437;BME280;57877;39.750;-104.894;2022-09-20T01:46:03;83611.65;;;28.39;14.03
70437;BME280;57877;39.750;-104.894;2022-09-20T01:48:31;83615.90;;;28.24;14.24
70437;BME280;57877;39.750;-104.894;2022-09-20T01:51:05;83619.51;;;28.39;14.15
70437;BME280;57877;39.750;-104.894;2022-09-20T01:55:53;83623.63;;;28.05;14.27
70437;BME280;57877;39.750;-104.894;2022-09-20T02:00:38;83628.68;;;28.06;14.35
70437;BME280;57877;39.750;-104.894;2022-09-20T02:07:59;83638.13;;;27.71;14.53
70437;BME280;57877;39.750;-104.894;2022-09-20T02:12:49;83644.42;;;27.24;14.96
70437;BME280;57877;39.750;-104.894;2022-09-20T02:15:08;83647.61;;;27.23;14.69
70437;BME280;57877;39.750;-104.894;2022-09-20T02:17:33;83650.46;;;27.03;14.06
70437;BME280;57877;39.750;-104.894;2022-09-20T02:20:05;83652.84;;;27.21;13.99
70437;BME280;57877;39.750;-104.894;2022-09-20T02:22:27;83656.00;;;27.17;14.60
70437;BME280;57877;39.750;-104.894;2022-09-20T02:24:47;83662.38;;;26.50;15.62
70437;BME280;57877;39.750;-104.894;2022-09-20T02:27:16;83665.87;;;26.48;15.77
70437;BME280;57877;39.750;-104.894;2022-09-20T02:29:40;83668.95;;;26.54;15.04
70437;BME280;57877;39.750;-104.894;2022-09-20T02:32:11;83669.79;;;26.65;15.31
70437;BME280;57877;39.750;-104.894;2022-09-20T02:36:54;83672.96;;;26.48;15.53
70437;BME280;57877;39.750;-104.894;2022-09-20T02:39:18;83676.96;;;26.28;15.25
70437;BME280;57877;39.750;-104.894;2022-09-20T02:41:51;83676.32;;;26.63;15.08
70437;BME280;57877;39.750;-104.894;2022-09-20T02:44:06;83677.23;;;26.46;14.77
70437;BME280;57877;39.750;-104.894;2022-09-20T02:46:32;83678.48;;;26.80;14.85
70437;BME280;57877;39.750;-104.894;2022-09-20T02:48:59;83682.51;;;26.73;14.70
70437;BME280;57877;39.750;-104.894;2022-09-20T02:51:23;83685.13;;;26.29;15.34
70437;BME280;57877;39.750;-104.894;2022-09-20T02:53:47;83686.28;;;26.48;14.97
70437;BME280;57877;39.750;-104.894;2022-09-20T02:56:14;83688.26;;;26.36;13.94
70437;BME280;57877;39.750;-104.894;2022-09-20T02:58:41;83691.37;;;26.30;14.56
70437;BME280;57877;39.750;-104.894;2022-09-20T03:01:03;83697.45;;;26.54;14.98
70437;BME280;57877;39.750;-104.894;2022-09-20T03:03:31;83699.62;;;26.36;14.97
70437;BME280;57877;39.750;-104.894;2022-09-20T03:05:54;83699.80;;;26.31;15.33
70437;BME280;57877;39.750;-104.894;2022-09-20T03:08:26;83703.05;;;26.36;15.11
70437;BME280;57877;39.750;-104.894;2022-09-20T03:10:43;83706.28;;;26.14;15.22
70437;BME280;57877;39.750;-104.894;2022-09-20T03:13:16;83707.09;;;25.99;14.84
70437;BME280;57877;39.750;-104.894;2022-09-20T03:15:41;83707.90;;;25.98;15.56
70437;BME280;57877;39.750;-104.894;2022-09-20T03:18:06;83709.70;;;26.21;15.46
70437;BME280;57877;39.750;-104.894;2022-09-20T03:20:32;83716.06;;;25.12;15.87
70437;BME280;57877;39.750;-104.894;2022-09-20T03:22:55;83719.27;;;25.68;16.01
70437;BME280;57877;39.750;-104.894;2022-09-20T03:27:48;83725.43;;;25.31;16.47
70437;BME280;57877;39.750;-104.894;2022-09-20T03:30:19;83727.04;;;25.12;16.85
70437;BME280;57877;39.750;-104.894;2022-09-20T03:32:44;83729.53;;;24.95;16.26
70437;BME280;57877;39.750;-104.894;2022-09-20T03:35:12;83733.94;;;25.03;17.15
70437;BME280;57877;39.750;-104.894;2022-09-20T03:37:39;83742.95;;;24.73;17.13
70437;BME280;57877;39.750;-104.894;2022-09-20T03:40:04;83747.00;;;25.18;16.19
70437;BME280;57877;39.750;-104.894;2022-09-20T03:42:21;83744.04;;;25.36;16.51
70437;BME280;57877;39.750;-104.894;2022-09-20T03:47:20;83739.37;;;25.77;16.01
70437;BME280;57877;39.750;-104.894;2022-09-20T03:49:45;83739.95;;;25.78;15.75
70437;BME280;57877;39.750;-104.894;2022-09-20T03:52:10;83743.04;;;25.48;15.56
70437;BME280;57877;39.750;-104.894;2022-09-20T03:54:36;83739.19;;;25.57;15.42
70437;BME280;57877;39.750;-104.894;2022-09-20T03:59:32;83736.65;;;25.23;17.14
70437;BME280;57877;39.750;-104.894;2022-09-20T04:02:02;83737.95;;;24.93;16.30
70437;BME280;57877;39.750;-104.894;2022-09-20T04:04:21;83738.11;;;25.23;16.89
70437;BME280;57877;39.750;-104.894;2022-09-20T04:06:49;83739.34;;;24.88;16.62
70437;BME280;57877;39.750;-104.894;2022-09-20T04:11:36;83742.62;;;25.00;16.71
70437;BME280;57877;39.750;-104.894;2022-09-20T04:14:04;83741.02;;;24.68;17.13
70437;BME280;57877;39.750;-104.894;2022-09-20T04:16:34;83740.60;;;24.69;17.36
70437;BME280;57877;39.750;-104.894;2022-09-20T04:18:52;83739.55;;;24.83;17.16
70437;BME280;57877;39.750;-104.894;2022-09-20T04:21:18;83745.72;;;24.89;17.24
70437;BME280;57877;39.750;-104.894;2022-09-20T04:23:46;83747.92;;;24.59;17.24
70437;BME280;57877;39.750;-104.894;2022-09-20T04:26:06;83751.03;;;25.01;17.53
70437;BME280;57877;39.750;-104.894;2022-09-20T04:28:38;83753.68;;;24.64;17.74
70437;BME280;57877;39.750;-104.894;2022-09-20T04:31:04;83752.92;;;24.66;17.61
70437;BME280;57877;39.750;-104.894;2022-09-20T04:33:27;83756.35;;;24.94;17.78
70437;BME280;57877;39.750;-104.894;2022-09-20T04:35:58;83754.53;;;24.32;18.19
70437;BME280;57877;39.750;-104.894;2022-09-20T04:38:18;83753.52;;;24.72;18.04
70437;BME280;57877;39.750;-104.894;2022-09-20T04:40:57;83755.95;;;24.31;18.19
70437;BME280;57877;39.750;-104.894;2022-09-20T04:55:25;83763.70;;;24.10;18.76
70437;BME280;57877;39.750;-104.894;2022-09-20T05:00:10;83772.73;;;23.56;19.48
70437;BME280;57877;39.750;-104.894;2022-09-20T05:17:21;83779.97;;;23.11;19.62
70437;BME280;57877;39.750;-104.894;2022-09-20T05:19:46;83785.67;;;23.27;19.67
70437;BME280;57877;39.750;-104.894;2022-09-20T05:27:04;83789.62;;;22.92;19.90
70437;BME280;57877;39.750;-104.894;2022-09-20T05:29:25;83786.34;;;22.62;19.97
70437;BME280;57877;39.750;-104.894;2022-09-20T05:31:51;83788.38;;;23.17;19.86
70437;BME280;57877;39.750;-104.894;2022-09-20T05:34:22;83790.87;;;22.84;20.19
70437;BME280;57877;39.750;-104.894;2022-09-20T05:36:47;83790.73;;;22.66;20.39
70437;BME280;57877;39.750;-104.894;2022-09-20T05:39:15;83787.69;;;22.70;20.23
70437;BME280;57877;39.750;-104.894;2022-09-20T05:41:35;83789.64;;;23.06;20.32
70437;BME280;57877;39.750;-104.894;2022-09-20T05:44:03;83793.69;;;22.83;20.35
70437;BME280;57877;39.750;-104.894;2022-09-20T05:46:32;83794.44;;;22.65;20.29
70437;BME280;57877;39.750;-104.894;2022-09-20T05:48:55;83800.50;;;22.72;19.95
70437;BME280;57877;39.750;-104.894;2022-09-20T05:51:24;83799.82;;;22.31;20.15
70437;BME280;57877;39.750;-104.894;2022-09-20T05:53:49;83800.40;;;22.24;20.78
70437;BME280;57877;39.750;-104.894;2022-09-20T05:56:12;83800.53;;;22.02;20.73
70437;BME280;57877;39.750;-104.894;2022-09-20T06:01:02;83803.10;;;22.39;20.69
70437;BME280;57877;39.750;-104.894;2022-09-20T06:03:31;83800.45;;;22.34;20.68
70437;BME280;57877;39.750;-104.894;2022-09-20T06:05:56;83796.95;;;22.34;20.62
70437;BME280;57877;39.750;-104.894;2022-09-20T06:10:50;83797.69;;;21.90;21.01
70437;BME280;57877;39.750;-104.894;2022-09-20T06:13:22;83797.61;;;21.99;20.92
70437;BME280;57877;39.750;-104.894;2022-09-20T06:15:36;83799.60;;;21.80;21.00
70437;BME280;57877;39.750;-104.894;2022-09-20T06:18:08;83801.11;;;21.59;21.34
70437;BME280;57877;39.750;-104.894;2022-09-20T06:20:29;83799.48;;;21.54;21.36
70437;BME280;57877;39.750;-104.894;2022-09-20T06:22:53;83796.44;;;21.57;21.24
70437;BME280;57877;39.750;-104.894;2022-09-20T06:25:22;83797.89;;;21.47;21.08
70437;BME280;57877;39.750;-104.894;2022-09-20T06:27:49;83799.43;;;21.40;20.99
70437;BME280;57877;39.750;-104.894;2022-09-20T06:30:16;83799.36;;;21.80;20.81
70437;BME280;57877;39.750;-104.894;2022-09-20T06:35:02;83796.12;;;21.62;20.97
70437;BME280;57877;39.750;-104.894;2022-09-20T06:37:36;83793.47;;;21.55;20.54
70437;BME280;57877;39.750;-104.894;2022-09-20T06:39:58;83793.27;;;22.07;20.26
70437;BME280;57877;39.750;-104.894;2022-09-20T06:42:19;83795.55;;;21.48;20.37
70437;BME280;57877;39.750;-104.894;2022-09-20T06:44:45;83798.60;;;21.54;20.60
70437;BME280;57877;39.750;-104.894;2022-09-20T06:47:12;83799.71;;;21.82;20.20
70437;BME280;57877;39.750;-104.894;2022-09-20T06:49:37;83802.10;;;21.51;20.35
70437;BME280;57877;39.750;-104.894;2022-09-20T06:52:04;83802.99;;;21.29;20.28
70437;BME280;57877;39.750;-104.894;2022-09-20T06:54:29;83808.17;;;21.59;20.26
70437;BME280;57877;39.750;-104.894;2022-09-20T06:56:55;83810.75;;;21.53;20.22
70437;BME280;57877;39.750;-104.894;2022-09-20T06:59:21;83814.29;;;21.46;20.24
70437;BME280;57877;39.750;-104.894;2022-09-20T07:01:47;83813.12;;;21.15;20.52
70437;BME280;57877;39.750;-104.894;2022-09-20T07:04:13;83811.12;;;21.04;20.54
70437;BME280;57877;39.750;-104.894;2022-09-20T07:06:39;83813.15;;;21.20;20.27
70437;BME280;57877;39.750;-104.894;2022-09-20T07:09:05;83813.52;;;21.42;20.34
70437;BME280;57877;39.750;-104.894;2022-09-20T07:11:31;83811.21;;;21.34;20.46
70437;BME280;57877;39.750;-104.894;2022-09-20T07:13:57;83813.16;;;20.78;20.79
70437;BME280;57877;39.750;-104.894;2022-09-20T07:16:23;83815.22;;;20.91;20.68
70437;BME280;57877;39.750;-104.894;2022-09-20T07:18:49;83818.79;;;20.83;20.99
70437;BME280;57877;39.750;-104.894;2022-09-20T07:21:16;83814.93;;;20.64;20.91
70437;BME280;57877;39.750;-104.894;2022-09-20T07:23:41;83819.42;;;20.84;20.84
70437;BME280;57877;39.750;-104.894;2022-09-20T07:26:15;83819.47;;;21.00;20.67
70437;BME280;57877;39.750;-104.894;2022-09-20T07:28:34;83820.43;;;20.99;20.67
70437;BME280;57877;39.750;-104.894;2022-09-20T07:30:59;83820.51;;;20.86;20.66
70437;BME280;57877;39.750;-104.894;2022-09-20T07:33:25;83824.81;;;20.96;21.15
70437;BME280;57877;39.750;-104.894;2022-09-20T07:35:51;83825.27;;;20.57;21.03
70437;BME280;57877;39.750;-104.894;2022-09-20T07:38:17;83825.91;;;20.48;21.08
70437;BME280;57877;39.750;-104.894;2022-09-20T07:40:43;83825.35;;;20.31;21.17
70437;BME280;57877;39.750;-104.894;2022-09-20T07:43:09;83826.34;;;20.23;21.39
70437;BME280;57877;39.750;-104.894;2022-09-20T07:45:36;83824.87;;;20.45;21.59
70437;BME280;57877;39.750;-104.894;2022-09-20T07:48:00;83825.42;;;19.86;21.64
70437;BME280;57877;39.750;-104.894;2022-09-20T07:50:25;83827.37;;;20.08;21.83
70437;BME280;57877;39.750;-104.894;2022-09-20T07:52:50;83830.01;;;19.89;22.06
70437;BME280;57877;39.750;-104.894;2022-09-20T07:55:15;83830.15;;;19.41;22.34
70437;BME280;57877;39.750;-104.894;2022-09-20T07:57:41;83825.51;;;19.61;22.07
70437;BME280;57877;39.750;-104.894;2022-09-20T08:00:08;83823.94;;;19.80;22.14
70437;BME280;57877;39.750;-104.894;2022-09-20T08:02:31;83824.95;;;19.60;21.97
70437;BME280;57877;39.750;-104.894;2022-09-20T08:04:57;83824.42;;;19.41;22.00
70437;BME280;57877;39.750;-104.894;2022-09-20T08:07:23;83823.73;;;19.63;21.85
70437;BME280;57877;39.750;-104.894;2022-09-20T08:09:49;83822.13;;;19.27;21.99
70437;BME280;57877;39.750;-104.894;2022-09-20T08:12:15;83820.35;;;19.95;21.67
70437;BME280;57877;39.750;-104.894;2022-09-20T08:14:41;83822.53;;;19.55;21.78
70437;BME280;57877;39.750;-104.894;2022-09-20T08:17:06;83819.23;;;19.43;21.87
70437;BME280;57877;39.750;-104.894;2022-09-20T08:19:31;83816.81;;;19.80;21.75
70437;BME280;57877;39.750;-104.894;2022-09-20T08:21:56;83814.15;;;19.70;21.50
70437;BME280;57877;39.750;-104.894;2022-09-20T08:24:21;83813.17;;;19.48;21.79
70437;BME280;57877;39.750;-104.894;2022-09-20T08:26:46;83812.37;;;19.68;21.57
70437;BME280;57877;39.750;-104.894;2022-09-20T08:29:11;83811.86;;;19.78;21.39
70437;BME280;57877;39.750;-104.894;2022-09-20T08:31:38;83815.51;;;19.74;21.42
70437;BME280;57877;39.750;-104.894;2022-09-20T08:34:03;83815.40;;;19.12;21.81
70437;BME280;57877;39.750;-104.894;2022-09-20T08:36:30;83819.17;;;19.90;21.00
70437;BME280;57877;39.750;-104.894;2022-09-20T08:38:54;83819.68;;;20.27;20.61
70437;BME280;57877;39.750;-104.894;2022-09-20T08:41:25;83815.94;;;19.94;20.87
70437;BME280;57877;39.750;-104.894;2022-09-20T08:43:50;83816.41;;;19.75;20.97
70437;BME280;57877;39.750;-104.894;2022-09-20T08:46:15;83818.68;;;19.81;20.78
70437;BME280;57877;39.750;-104.894;2022-09-20T08:48:38;83818.80;;;20.22;20.79
70437;BME280;57877;39.750;-104.894;2022-09-20T08:51:05;83823.23;;;19.99;20.78
70437;BME280;57877;39.750;-104.894;2022-09-20T08:53:31;83826.51;;;19.68;20.87
70437;BME280;57877;39.750;-104.894;2022-09-20T08:55:55;83826.40;;;19.79;20.99
70437;BME280;57877;39.750;-104.894;2022-09-20T08:58:21;83829.29;;;19.46;21.10
70437;BME280;57877;39.750;-104.894;2022-09-20T09:00:46;83829.87;;;19.77;20.84
70437;BME280;57877;39.750;-104.894;2022-09-20T09:03:14;83830.14;;;19.70;21.00
70437;BME280;57877;39.750;-104.894;2022-09-20T09:05:43;83830.32;;;19.50;20.97
70437;BME280;57877;39.750;-104.894;2022-09-20T09:08:09;83827.50;;;19.68;20.81
70437;BME280;57877;39.750;-104.894;2022-09-20T09:10:34;83827.59;;;19.71;20.79
70437;BME280;57877;39.750;-104.894;2022-09-20T09:12:55;83826.75;;;19.64;20.81
70437;BME280;57877;39.750;-104.894;2022-09-20T09:15:24;83828.67;;;19.48;20.65
70437;BME280;57877;39.750;-104.894;2022-09-20T09:17:45;83829.51;;;19.46;21.04
70437;BME280;57877;39.750;-104.894;2022-09-20T09:20:17;83831.11;;;19.67;20.74
70437;BME280;57877;39.750;-104.894;2022-09-20T09:22:40;83834.67;;;19.68;20.63
70437;BME280;57877;39.750;-104.894;2022-09-20T09:25:09;83838.62;;;19.84;20.45
70437;BME280;57877;39.750;-104.894;2022-09-20T09:27:28;83838.34;;;19.89;20.43
70437;BME280;57877;39.750;-104.894;2022-09-20T09:29:54;83840.77;;;19.65;20.47
70437;BME280;57877;39.750;-104.894;2022-09-20T09:32:21;83843.22;;;19.80;20.40
70437;BME280;57877;39.750;-104.894;2022-09-20T09:34:44;83844.55;;;19.78;20.32
70437;BME280;57877;39.750;-104.894;2022-09-20T09:39:35;83839.10;;;19.81;20.38
70437;BME280;57877;39.750;-104.894;2022-09-20T09:41:59;83843.83;;;19.89;20.32
70437;BME280;57877;39.750;-104.894;2022-09-20T09:44:26;83846.29;;;20.11;19.99
70437;BME280;57877;39.750;-104.894;2022-09-20T09:46:49;83847.28;;;19.92;20.06
70437;BME280;57877;39.750;-104.894;2022-09-20T09:49:16;83851.64;;;20.05;20.14
70437;BME280;57877;39.750;-104.894;2022-09-20T09:51:39;83851.80;;;19.78;20.12
70437;BME280;57877;39.750;-104.894;2022-09-20T09:54:05;83853.74;;;19.86;20.19
70437;BME280;57877;39.750;-104.894;2022-09-20T09:56:41;83853.29;;;19.72;20.21
70437;BME280;57877;39.750;-104.894;2022-09-20T09:59:08;83857.34;;;19.56;20.05
70437;BME280;57877;39.750;-104.894;2022-09-20T10:01:25;83855.67;;;19.53;20.16
70437;BME280;57877;39.750;-104.894;2022-09-20T10:03:51;83856.47;;;19.20;20.34
70437;BME280;57877;39.750;-104.894;2022-09-20T10:06:17;83856.69;;;19.18;20.29
70437;BME280;57877;39.750;-104.894;2022-09-20T10:08:43;83862.76;;;19.17;20.61
70437;BME280;57877;39.750;-104.894;2022-09-20T10:11:10;83867.19;;;19.33;20.34
70437;BME280;57877;39.750;-104.894;2022-09-20T10:13:32;83867.95;;;19.41;20.37
70437;BME280;57877;39.750;-104.894;2022-09-20T10:15:54;83871.71;;;19.36;20.19
70437;BME280;57877;39.750;-104.894;2022-09-20T10:18:30;83873.93;;;19.35;20.06
70437;BME280;57877;39.750;-104.894;2022-09-20T10:20:51;83872.72;;;19.23;20.15
70437;BME280;57877;39.750;-104.894;2022-09-20T10:23:15;83875.43;;;19.11;20.29
70437;BME280;57877;39.750;-104.894;2022-09-20T10:25:38;83875.13;;;19.19;20.27
70437;BME280;57877;39.750;-104.894;2022-09-20T10:28:05;83879.05;;;19.51;20.23
70437;BME280;57877;39.750;-104.894;2022-09-20T10:30:24;83881.05;;;19.58;20.40
70437;BME280;57877;39.750;-104.894;2022-09-20T10:32:57;83882.50;;;19.25;20.28
70437;BME280;57877;39.750;-104.894;2022-09-20T10:35:23;83883.75;;;18.61;21.13
70437;BME280;57877;39.750;-104.894;2022-09-20T10:37:48;83885.27;;;19.04;20.87
70437;BME280;57877;39.750;-104.894;2022-09-20T10:40:11;83886.58;;;18.72;21.30
70437;BME280;57877;39.750;-104.894;2022-09-20T10:42:37;83892.28;;;18.37;21.85
70437;BME280;57877;39.750;-104.894;2022-09-20T10:45:04;83893.48;;;18.19;22.15
70437;BME280;57877;39.750;-104.894;2022-09-20T10:47:25;83892.83;;;18.42;21.99
70437;BME280;57877;39.750;-104.894;2022-09-20T10:49:54;83891.68;;;18.13;22.09
70437;BME280;57877;39.750;-104.894;2022-09-20T10:52:22;83890.32;;;18.04;22.34
70437;BME280;57877;39.750;-104.894;2022-09-20T10:54:49;83892.62;;;18.48;22.20
70437;BME280;57877;39.750;-104.894;2022-09-20T10:57:17;83893.49;;;18.41;22.58
70437;BME280;57877;39.750;-104.894;2022-09-20T10:59:40;83894.21;;;18.21;22.46
70437;BME280;57877;39.750;-104.894;2022-09-20T11:04:32;83899.61;;;18.07;23.03
70437;BME280;57877;39.750;-104.894;2022-09-20T11:06:54;83901.64;;;18.03;23.24
70437;BME280;57877;39.750;-104.894;2022-09-20T11:09:18;83903.86;;;17.88;23.46
70437;BME280;57877;39.750;-104.894;2022-09-20T11:11:44;83909.27;;;18.44;23.44
70437;BME280;57877;39.750;-104.894;2022-09-20T11:14:11;83914.25;;;18.54;23.57
70437;BME280;57877;39.750;-104.894;2022-09-20T11:16:37;83916.50;;;18.46;23.31
70437;BME280;57877;39.750;-104.894;2022-09-20T11:19:02;83919.13;;;18.38;22.96
70437;BME280;57877;39.750;-104.894;2022-09-20T11:21:27;83923.09;;;18.61;22.90
70437;BME280;57877;39.750;-104.894;2022-09-20T11:23:55;83923.51;;;18.22;23.14
70437;BME280;57877;39.750;-104.894;2022-09-20T11:26:23;83928.13;;;18.25;23.79
70437;BME280;57877;39.750;-104.894;2022-09-20T11:28:45;83932.86;;;18.23;24.25
70437;BME280;57877;39.750;-104.894;2022-09-20T11:31:15;83931.35;;;18.27;24.60
70437;BME280;57877;39.750;-104.894;2022-09-20T11:33:40;83932.88;;;18.08;24.45
70437;BME280;57877;39.750;-104.894;2022-09-20T11:36:03;83930.75;;;17.59;24.74
70437;BME280;57877;39.750;-104.894;2022-09-20T11:38:30;83931.70;;;17.83;24.69
70437;BME280;57877;39.750;-104.894;2022-09-20T11:40:56;83931.47;;;17.65;24.53
70437;BME280;57877;39.750;-104.894;2022-09-20T11:43:19;83932.32;;;18.06;24.54
70437;BME280;57877;39.750;-104.894;2022-09-20T11:45:45;83928.10;;;17.58;24.61
70437;BME280;57877;39.750;-104.894;2022-09-20T11:48:15;83926.86;;;17.60;24.41
70437;BME280;57877;39.750;-104.894;2022-09-20T11:50:46;83927.71;;;17.53;24.32
70437;BME280;57877;39.750;-104.894;2022-09-20T11:53:11;83927.85;;;17.61;24.17
70437;BME280;57877;39.750;-104.894;2022-09-20T11:55:38;83927.03;;;17.45;24.28
70437;BME280;57877;39.750;-104.894;2022-09-20T11:58:00;83931.59;;;16.74;24.70
70437;BME280;57877;39.750;-104.894;2022-09-20T12:00:27;83932.74;;;17.36;24.35
70437;BME280;57877;39.750;-104.894;2022-09-20T12:02:49;83932.69;;;17.20;24.12
70437;BME280;57877;39.750;-104.894;2022-09-20T12:07:40;83935.08;;;16.88;24.33
70437;BME280;57877;39.750;-104.894;2022-09-20T12:10:06;83939.99;;;17.25;23.96
70437;BME280;57877;39.750;-104.894;2022-09-20T12:12:35;83942.31;;;17.07;24.11
70437;BME280;57877;39.750;-104.894;2022-09-20T12:14:57;83945.74;;;16.59;24.50
70437;BME280;57877;39.750;-104.894;2022-09-20T12:19:47;83947.97;;;16.70;24.23
70437;BME280;57877;39.750;-104.894;2022-09-20T12:22:26;83951.89;;;16.92;23.84
70437;BME280;57877;39.750;-104.894;2022-09-20T12:24:39;83951.03;;;16.94;23.71
70437;BME280;57877;39.750;-104.894;2022-09-20T12:32:00;83955.17;;;16.89;23.19
70437;BME280;57877;39.750;-104.894;2022-09-20T12:34:31;83960.15;;;17.15;23.01
70437;BME280;57877;39.750;-104.894;2022-09-20T12:39:17;83961.77;;;17.21;22.89
70437;BME280;57877;39.750;-104.894;2022-09-20T12:41:47;83963.58;;;17.16;22.91
70437;BME280;57877;39.750;-104.894;2022-09-20T12:46:37;83966.22;;;17.41;22.58
70437;BME280;57877;39.750;-104.894;2022-09-20T12:51:30;83968.88;;;17.41;22.43
70437;BME280;57877;39.750;-104.894;2022-09-20T12:53:59;83974.77;;;17.10;22.52
70437;BME280;57877;39.750;-104.894;2022-09-20T12:56:20;83977.69;;;17.67;22.31
70437;BME280;57877;39.750;-104.894;2022-09-20T12:58:48;83981.13;;;17.35;22.47
70437;BME280;57877;39.750;-104.894;2022-09-20T13:03:36;83982.28;;;17.43;22.44
70437;BME280;57877;39.750;-104.894;2022-09-20T13:08:28;83987.93;;;17.12;22.64
70437;BME280;57877;39.750;-104.894;2022-09-20T13:10:58;83987.82;;;16.99;22.85
70437;BME280;57877;39.750;-104.894;2022-09-20T13:13:29;83987.59;;;16.88;22.69
70437;BME280;57877;39.750;-104.894;2022-09-20T13:15:49;83987.28;;;17.32;22.28
70437;BME280;57877;39.750;-104.894;2022-09-20T13:18:12;83988.95;;;17.38;22.14
70437;BME280;57877;39.750;-104.894;2022-09-20T13:20:36;83991.10;;;17.52;21.96
70437;BME280;57877;39.750;-104.894;2022-09-20T13:23:03;83993.19;;;17.78;21.85
70437;BME280;57877;39.750;-104.894;2022-09-20T13:25:27;83996.93;;;17.51;21.99
70437;BME280;57877;39.750;-104.894;2022-09-20T13:27:59;83997.34;;;17.28;21.83
70437;BME280;57877;39.750;-104.894;2022-09-20T13:30:21;83995.10;;;17.45;21.90
70437;BME280;57877;39.750;-104.894;2022-09-20T13:32:45;83989.71;;;17.65;21.99
70437;BME280;57877;39.750;-104.894;2022-09-20T13:35:15;83988.28;;;17.63;21.75
70437;BME280;57877;39.750;-104.894;2022-09-20T13:37:39;83990.34;;;17.89;21.80
70437;BME280;57877;39.750;-104.894;2022-09-20T13:40:04;83995.12;;;18.32;21.85
70437;BME280;57877;39.750;-104.894;2022-09-20T13:42:29;83995.16;;;18.27;21.04
70437;BME280;57877;39.750;-104.894;2022-09-20T13:44:55;83998.18;;;18.40;20.99
70437;BME280;57877;39.750;-104.894;2022-09-20T13:47:24;84001.69;;;18.43;20.91
70437;BME280;57877;39.750;-104.894;2022-09-20T13:49:47;84003.49;;;18.67;20.67
70437;BME280;57877;39.750;-104.894;2022-09-20T13:52:22;84004.33;;;19.34;20.19
70437;BME280;57877;39.750;-104.894;2022-09-20T13:54:39;84004.76;;;19.66;19.49